createdAt,value
2019-04-21T09:54:28.456Z,4.97
2019-04-21T09:57:01.626Z,4.92
2019-04-21T09:59:34.912Z,4.78
2019-04-21T10:02:09.570Z,4.70
2019-04-21T10:04:33.515Z,4.65
2019-04-21T10:07:04.589Z,4.67
2019-04-21T10:09:35.579Z,5.10
2019-04-21T10:12:06.409Z,5.35
2019-04-21T10:14:38.698Z,4.60
2019-04-21T10:17:28.110Z,4.22
2019-04-21T10:19:58.716Z,4.22
2019-04-21T10:22:28.929Z,4.25
2019-04-21T10:24:59.030Z,3.92
2019-04-21T10:27:29.479Z,4.85
2019-04-21T10:29:59.794Z,4.50
2019-04-21T10:32:30.188Z,4.45
2019-04-21T10:35:01.569Z,4.22
2019-04-21T10:37:42.805Z,4.00
2019-04-21T10:40:03.921Z,3.85
2019-04-21T10:42:35.350Z,4.17
2019-04-21T10:45:07.899Z,4.30
2019-04-21T10:47:38.862Z,4.33
2019-04-21T10:50:10.938Z,4.08
2019-04-21T10:53:00.897Z,4.47
2019-04-21T10:55:53.571Z,4.87
2019-04-21T10:58:24.602Z,4.67
2019-04-21T11:01:02.214Z,4.58
2019-04-21T11:03:50.834Z,4.03
2019-04-21T11:06:21.341Z,4.53
2019-04-21T11:08:55.416Z,3.83
2019-04-21T11:11:23.853Z,4.75
2019-04-21T11:13:54.844Z,4.42
2019-04-21T11:16:25.188Z,4.25
2019-04-21T11:18:57.963Z,4.70
2019-04-21T11:21:29.211Z,4.70
2019-04-21T11:23:59.518Z,4.17
2019-04-21T11:26:29.927Z,4.97
2019-04-21T11:29:01.084Z,4.97
2019-04-21T11:31:33.414Z,4.62
2019-04-21T11:34:05.125Z,4.40
2019-04-21T11:36:35.577Z,4.30
2019-04-21T11:39:33.527Z,4.45
2019-04-21T11:41:54.176Z,4.50
2019-04-21T11:44:24.854Z,4.62
2019-04-21T11:46:56.371Z,4.33
2019-04-21T11:49:30.229Z,4.10
2019-04-21T11:52:00.698Z,4.78
2019-04-21T11:54:31.087Z,5.03
2019-04-21T11:57:07.997Z,4.62
2019-04-21T11:59:33.508Z,5.80
2019-04-21T12:02:03.805Z,5.00
2019-04-21T12:04:33.828Z,4.37
2019-04-21T12:07:05.002Z,4.62
2019-04-21T12:09:35.492Z,4.42
2019-04-21T12:12:07.394Z,4.70
2019-04-21T12:14:37.565Z,4.90
2019-04-21T12:17:07.951Z,4.60
2019-04-21T12:19:38.771Z,5.00
2019-04-21T12:22:21.118Z,4.65
2019-04-21T12:24:43.162Z,4.87
2019-04-21T12:27:16.138Z,4.50
2019-04-21T12:29:48.013Z,4.12
2019-04-21T12:32:38.134Z,3.67
2019-04-21T12:35:10.058Z,4.58
2019-04-21T12:37:40.668Z,4.30
2019-04-21T12:40:12.590Z,4.75
2019-04-21T12:42:45.582Z,5.15
2019-04-21T12:45:17.383Z,3.85
2019-04-21T12:47:50.248Z,4.58
2019-04-21T12:50:19.736Z,4.25
2019-04-21T12:52:49.956Z,4.40
2019-04-21T12:55:26.177Z,5.15
2019-04-21T12:57:53.188Z,4.03
2019-04-21T13:00:24.947Z,4.30
2019-04-21T13:02:56.069Z,4.28
2019-04-21T13:05:27.499Z,4.12
2019-04-21T13:07:57.914Z,4.90
2019-04-21T13:10:28.458Z,4.47
2019-04-21T13:12:59.759Z,4.83
2019-04-21T13:15:31.332Z,5.92
2019-04-21T13:18:02.686Z,5.47
2019-04-21T13:20:34.066Z,5.20
2019-04-21T13:23:05.873Z,5.45
2019-04-21T13:25:36.372Z,5.10
2019-04-21T13:28:07.968Z,5.17
2019-04-21T13:30:40.575Z,4.80
2019-04-21T13:33:11.285Z,4.90
2019-04-21T13:35:42.252Z,4.83
2019-04-21T13:38:26.366Z,4.85
2019-04-21T13:41:10.478Z,5.33
2019-04-21T13:43:27.483Z,4.72
2019-04-21T13:45:57.878Z,5.17
2019-04-21T13:48:28.674Z,5.53
2019-04-21T13:50:59.531Z,5.80
2019-04-21T13:53:31.271Z,5.65
2019-04-21T13:56:16.304Z,5.50
2019-04-21T13:58:46.503Z,4.80
2019-04-21T14:01:17.918Z,5.62
2019-04-21T14:03:49.426Z,5.17
2019-04-21T14:06:20.383Z,5.20
2019-04-21T14:08:51.200Z,4.80
2019-04-21T14:11:25.051Z,4.70
2019-04-21T14:13:56.541Z,4.80
2019-04-21T14:16:26.804Z,5.08
2019-04-21T14:18:57.190Z,4.65
2019-04-21T14:21:27.341Z,5.22
2019-04-21T14:23:58.120Z,5.47
2019-04-21T14:26:30.000Z,6.60
2019-04-21T14:29:01.493Z,5.20
2019-04-21T14:31:32.387Z,5.58
2019-04-21T14:34:03.806Z,5.47
2019-04-21T14:36:36.935Z,4.65
2019-04-21T14:39:10.712Z,4.92
2019-04-21T14:41:42.119Z,5.12
2019-04-21T14:44:15.146Z,5.15
2019-04-21T14:46:57.467Z,4.85
2019-04-21T14:49:47.111Z,4.97
2019-04-21T14:52:21.218Z,5.90
2019-04-21T14:55:10.639Z,4.92
2019-04-21T14:57:41.130Z,4.80
2019-04-21T15:00:15.475Z,5.15
2019-04-21T15:02:45.800Z,5.03
2019-04-21T15:05:17.564Z,5.87
2019-04-21T15:07:48.954Z,5.08
2019-04-21T15:10:25.226Z,5.20
2019-04-21T15:12:51.900Z,5.62
2019-04-21T15:15:23.426Z,5.00
2019-04-21T15:17:55.697Z,5.08
2019-04-21T15:20:26.898Z,5.50
2019-04-21T15:23:02.019Z,5.30
2019-04-21T15:25:34.413Z,5.30
2019-04-21T15:28:12.234Z,5.10
2019-04-21T15:30:44.723Z,5.22
2019-04-21T15:33:16.268Z,4.95
2019-04-21T15:35:48.863Z,5.53
2019-04-21T15:38:20.149Z,5.12
2019-04-21T15:40:56.015Z,4.97
2019-04-21T15:43:24.440Z,4.75
2019-04-21T15:45:54.865Z,5.08
2019-04-21T15:48:54.949Z,5.28
2019-04-21T15:51:34.097Z,4.10
2019-04-21T15:54:27.186Z,4.35
2019-04-21T15:57:11.236Z,4.50
2019-04-21T15:59:52.954Z,4.58
2019-04-21T16:02:44.975Z,4.55
2019-04-21T16:05:24.775Z,4.40
2019-04-21T16:08:18.318Z,4.70
2019-04-21T16:11:04.508Z,5.80
2019-04-21T16:13:41.856Z,5.60
2019-04-21T16:16:27.329Z,6.60
2019-04-21T16:19:12.304Z,5.05
2019-04-21T16:21:50.896Z,5.40
2019-04-21T16:24:37.671Z,6.75
2019-04-21T16:27:27.654Z,7.87
2019-04-21T16:30:13.796Z,9.28
2019-04-21T16:33:10.260Z,8.18
2019-04-21T16:36:23.303Z,7.97
2019-04-21T16:39:03.130Z,8.20
2019-04-21T16:42:08.431Z,9.10
2019-04-21T16:44:50.891Z,8.05
2019-04-21T16:47:21.721Z,7.87
2019-04-21T16:50:09.854Z,8.60
2019-04-21T16:52:56.778Z,7.90
2019-04-21T16:55:46.969Z,7.15
2019-04-21T16:58:40.711Z,7.08
2019-04-21T17:01:32.245Z,8.00
2019-04-21T17:04:04.575Z,7.22
2019-04-21T17:06:35.288Z,6.30
2019-04-21T17:09:08.470Z,6.78
2019-04-21T17:11:40.138Z,6.97
2019-04-21T17:14:33.060Z,7.25
